PWSweather.com
Personal Weather Stations
Station Observations
TENMILE2
Watts Bar Lake, Ten Mile, TN 37880

Watts Bar LakeTen Mile, TN 37880

Lat: 35.686, Lon: -84.7068

Elevation: 767

Station Type: Davis VP2

http://www.wattsbarweather.net

Latest ConditionsUpdated 10:11:20 PM EDT Monday, Mar 27, 2017
Currently Today's Max Today's Min Today's Average
Temperature 57.9°F14.4°C 76.9°F24.9°C 49.7°F9.8°C 61.7°F16.5°C
Dew Point 56.1°F13.4°C 61.5°F16.4°C 48.3°F9.1°C 54.9°F12.7°C
Winds Calm Calm 9.8 mph S15.8 kmh S - 2.0 mph 3.2 kmh
Wind Gusts 1.3 mph2.1 kmh 22.5 mph36.2 kmh - -
Humidity 94% 96% 50% 80%
Pressure 29.95 in1014.2 mb 30.07 in1018.3 mb 29.88 in1011.9 mb -
Precipitation - 0.62 in15.7 mm - -
Hour Temp Dew Point Humidity Winds Wind Gusts Pressure Precip Precip Rate Daily Precip Total
10:11 PM 57.9°F14.4°C 56.1°F13.4°C 94% Calm Calm 1.3 mph2.1 kmh 29.95 in1014.2 mb 0.00 in0.0 mm 0.00 in0.0 mm 0.62 in15.7 mm
10:06 PM 58.0°F14.4°C 56.2°F13.4°C 94% 1.3 mph SE2.1 kmh SE 1.3 mph2.1 kmh 29.95 in1014.2 mb 0.00 in0.0 mm 0.00 in0.0 mm 0.62 in15.7 mm
10:01 PM 58.1°F14.5°C 56.3°F13.5°C 94% Calm Calm -- 29.95 in1014.2 mb 0.00 in0.0 mm 0.00 in0.0 mm 0.62 in15.7 mm
09:56 PM 58.2°F14.6°C 56.4°F13.6°C 94% Calm Calm -- 29.95 in1014.2 mb 0.00 in0.0 mm 0.00 in0.0 mm 0.62 in15.7 mm
09:51 PM 58.3°F14.6°C 56.5°F13.6°C 94% Calm Calm 1.0 mph1.6 kmh 29.95 in1014.2 mb 0.01 in0.3 mm 0.00 in0.0 mm 0.62 in15.7 mm
09:46 PM 58.3°F14.6°C 56.5°F13.6°C 94% Calm Calm 1.0 mph1.6 kmh 29.94 in1013.9 mb 0.03 in0.8 mm 0.00 in0.0 mm 0.62 in15.7 mm
09:41 PM 58.4°F14.7°C 56.6°F13.7°C 94% Calm Calm 1.3 mph2.1 kmh 29.95 in1014.2 mb 0.06 in1.5 mm 0.00 in0.0 mm 0.62 in15.7 mm
09:36 PM 58.4°F14.7°C 56.3°F13.5°C 93% 1.3 mph SE2.1 kmh SE 1.3 mph2.1 kmh 29.95 in1014.2 mb 0.07 in1.8 mm 0.00 in0.0 mm 0.62 in15.7 mm
09:31 PM 58.6°F14.8°C 56.6°F13.7°C 93% 1.3 mph SW2.1 kmh SW 2.0 mph3.2 kmh 29.95 in1014.2 mb 0.08 in2.0 mm 0.00 in0.0 mm 0.62 in15.7 mm
09:26 PM 58.7°F14.8°C 56.7°F13.7°C 93% Calm Calm 2.0 mph3.2 kmh 29.94 in1013.9 mb 0.11 in2.8 mm 0.00 in0.0 mm 0.62 in15.7 mm
09:21 PM 58.8°F14.9°C 56.4°F13.6°C 92% 1.3 mph SW2.1 kmh SW 2.5 mph4.0 kmh 29.93 in1013.5 mb 0.16 in4.1 mm 0.00 in0.0 mm 0.62 in15.7 mm
09:16 PM 58.9°F14.9°C 56.5°F13.6°C 92% Calm Calm 4.0 mph6.4 kmh 29.94 in1013.9 mb 0.31 in7.9 mm 0.00 in0.0 mm 0.62 in15.7 mm
09:11 PM 59.0°F15.0°C 56.3°F13.5°C 91% 1.3 mph SW2.1 kmh SW 6.0 mph9.7 kmh 29.92 in1013.2 mb 0.35 in8.9 mm 0.00 in0.0 mm 0.62 in15.7 mm
09:06 PM 59.1°F15.1°C 56.4°F13.6°C 91% 1.3 mph WSW2.1 kmh WSW 6.3 mph10.1 kmh 29.92 in1013.2 mb 0.37 in9.4 mm 0.00 in0.0 mm 0.62 in15.7 mm
09:01 PM 59.2°F15.1°C 56.5°F13.6°C 91% 2.3 mph SE3.7 kmh SE 8.8 mph14.2 kmh 29.92 in1013.2 mb 0.40 in10.2 mm 0.00 in0.0 mm 0.62 in15.7 mm
08:56 PM 59.4°F15.2°C 56.4°F13.6°C 90% 1.5 mph E2.4 kmh E 8.8 mph14.2 kmh 29.92 in1013.2 mb 0.40 in10.2 mm 0.00 in0.0 mm 0.62 in15.7 mm
08:50 PM 59.4°F15.2°C 57.0°F13.9°C 92% 2.2 mph SE3.5 kmh SE 8.8 mph14.2 kmh 29.92 in1013.2 mb 0.40 in10.2 mm 0.12 in3.0 mm 0.60 in15.2 mm
08:45 PM 59.6°F15.3°C 57.2°F14.0°C 92% 2.3 mph ENE3.7 kmh ENE 6.3 mph10.1 kmh 29.93 in1013.5 mb 0.39 in9.9 mm 0.36 in9.1 mm 0.58 in14.7 mm
08:40 PM 59.7°F15.4°C 57.6°F14.2°C 93% 1.3 mph SE2.1 kmh SE 9.0 mph14.5 kmh 29.95 in1014.2 mb 0.36 in9.1 mm 0.12 in3.0 mm 0.56 in14.2 mm
08:35 PM 59.8°F15.4°C 57.7°F14.3°C 93% 1.3 mph ESE2.1 kmh ESE 13.0 mph20.9 kmh 29.96 in1014.6 mb 0.35 in8.9 mm 0.12 in3.0 mm 0.55 in14.0 mm
08:30 PM 59.8°F15.4°C 57.4°F14.1°C 92% 2.0 mph E3.2 kmh E 13.8 mph22.2 kmh 29.97 in1014.9 mb 0.34 in8.6 mm 0.36 in9.1 mm 0.54 in13.7 mm
08:25 PM 59.9°F15.5°C 57.5°F14.2°C 92% 2.9 mph SE4.7 kmh SE 15.0 mph24.1 kmh 29.98 in1015.2 mb 0.31 in7.9 mm 0.24 in6.1 mm 0.51 in13.0 mm
08:20 PM 60.1°F15.6°C 57.7°F14.3°C 92% 3.8 mph SSE6.1 kmh SSE 15.0 mph24.1 kmh 29.99 in1015.6 mb 0.29 in7.4 mm 0.00 in0.0 mm 0.45 in11.4 mm
08:15 PM 60.3°F15.7°C 57.9°F14.4°C 92% 1.9 mph SW3.1 kmh SW 4.0 mph6.4 kmh 29.99 in1015.6 mb 0.29 in7.4 mm 0.36 in9.1 mm 0.30 in7.6 mm
08:10 PM 60.4°F15.8°C 58.0°F14.4°C 92% Calm Calm 1.3 mph2.1 kmh 29.97 in1014.9 mb 0.26 in6.6 mm 0.24 in6.1 mm 0.26 in6.6 mm
08:05 PM 60.4°F15.8°C 57.7°F14.3°C 91% 1.3 mph E2.1 kmh E 1.3 mph2.1 kmh 29.96 in1014.6 mb 0.24 in6.1 mm 0.24 in6.1 mm 0.24 in6.1 mm
08:00 PM 60.4°F15.8°C 57.7°F14.3°C 91% 1.3 mph E2.1 kmh E 1.3 mph2.1 kmh 29.95 in1014.2 mb 0.22 in5.6 mm 0.00 in0.0 mm 0.22 in5.6 mm
07:55 PM 60.4°F15.8°C 57.7°F14.3°C 91% 1.3 mph NNW2.1 kmh NNW 1.3 mph2.1 kmh 29.95 in1014.2 mb 0.22 in5.6 mm 0.12 in3.0 mm 0.22 in5.6 mm
07:50 PM 60.5°F15.8°C 57.8°F14.3°C 91% Calm Calm 6.0 mph9.7 kmh 29.94 in1013.9 mb 0.21 in5.3 mm 0.12 in3.0 mm 0.21 in5.3 mm
07:45 PM 60.7°F15.9°C 57.7°F14.3°C 90% 1.3 mph WNW2.1 kmh WNW 6.0 mph9.7 kmh 29.93 in1013.5 mb 0.20 in5.1 mm 0.00 in0.0 mm 0.20 in5.1 mm
07:40 PM 60.9°F16.1°C 57.3°F14.1°C 88% 1.3 mph E2.1 kmh E 10.0 mph16.1 kmh 29.93 in1013.5 mb 0.20 in5.1 mm 0.00 in0.0 mm 0.20 in5.1 mm
07:35 PM 60.9°F16.1°C 56.7°F13.7°C 86% 3.3 mph SSE5.3 kmh SSE 10.0 mph16.1 kmh 29.92 in1013.2 mb 0.20 in5.1 mm 0.00 in0.0 mm 0.20 in5.1 mm
07:30 PM 61.4°F16.3°C 57.2°F14.0°C 86% 1.7 mph E2.7 kmh E 11.0 mph17.7 kmh 29.93 in1013.5 mb 0.20 in5.1 mm 0.00 in0.0 mm 0.20 in5.1 mm
07:25 PM 62.9°F17.2°C 57.0°F13.9°C 81% 1.4 mph SSE2.3 kmh SSE 11.0 mph17.7 kmh 29.92 in1013.2 mb 0.20 in5.1 mm 0.72 in18.3 mm 0.20 in5.1 mm
07:20 PM 65.7°F18.7°C 57.3°F14.1°C 74% 3.2 mph SW5.1 kmh SW 10.0 mph16.1 kmh 29.94 in1013.9 mb 0.14 in3.6 mm 1.56 in39.6 mm 0.14 in3.6 mm
07:15 PM 68.3°F20.2°C 56.3°F13.5°C 65% 2.1 mph S3.4 kmh S 7.5 mph12.1 kmh 29.91 in1012.9 mb 0.01 in0.3 mm 0.12 in3.0 mm 0.01 in0.3 mm
07:10 PM 70.3°F21.3°C 56.4°F13.6°C 61% 3.0 mph S4.8 kmh S 12.0 mph19.3 kmh 29.91 in1012.9 mb 0.00 in0.0 mm 0.00 in0.0 mm 0.00 in0.0 mm
07:05 PM 71.4°F21.9°C 57.4°F14.1°C 61% 4.2 mph SSW6.8 kmh SSW 12.0 mph19.3 kmh 29.90 in1012.5 mb 0.00 in0.0 mm 0.00 in0.0 mm 0.00 in0.0 mm
07:00 PM 71.8°F22.1°C 57.4°F14.1°C 60% 4.4 mph S7.1 kmh S 15.0 mph24.1 kmh 29.90 in1012.5 mb 0.00 in0.0 mm 0.00 in0.0 mm 0.00 in0.0 mm
06:55 PM 72.2°F22.3°C 56.8°F13.8°C 58% 7.0 mph S11.3 kmh S 15.0 mph24.1 kmh 29.90 in1012.5 mb 0.00 in0.0 mm 0.00 in0.0 mm 0.00 in0.0 mm
06:50 PM 72.4°F22.4°C 56.5°F13.6°C 57% 4.0 mph SSE6.4 kmh SSE 17.0 mph27.4 kmh 29.90 in1012.5 mb 0.00 in0.0 mm 0.00 in0.0 mm 0.00 in0.0 mm
06:45 PM 72.7°F22.6°C 56.3°F13.5°C 56% 4.8 mph S7.7 kmh S 17.0 mph27.4 kmh 29.90 in1012.5 mb 0.00 in0.0 mm 0.00 in0.0 mm 0.00 in0.0 mm
06:40 PM 72.7°F22.6°C 56.3°F13.5°C 56% 7.4 mph S11.9 kmh S 21.3 mph34.3 kmh 29.89 in1012.2 mb 0.00 in0.0 mm 0.00 in0.0 mm 0.00 in0.0 mm
06:35 PM 72.4°F22.4°C 56.5°F13.6°C 57% 7.9 mph S12.7 kmh S 21.3 mph34.3 kmh 29.89 in1012.2 mb 0.00 in0.0 mm 0.00 in0.0 mm 0.00 in0.0 mm
06:30 PM 72.3°F22.4°C 56.9°F13.8°C 58% 5.3 mph SSW8.5 kmh SSW 12.5 mph20.1 kmh 29.89 in1012.2 mb 0.00 in0.0 mm 0.00 in0.0 mm 0.00 in0.0 mm
06:25 PM 72.2°F22.3°C 57.3°F14.1°C 59% 3.9 mph SSE6.3 kmh SSE 8.8 mph14.2 kmh 29.88 in1011.9 mb 0.00 in0.0 mm 0.00 in0.0 mm 0.00 in0.0 mm
06:20 PM 72.6°F22.6°C 59.0°F15.0°C 62% 2.0 mph S3.2 kmh S 7.0 mph11.3 kmh 29.89 in1012.2 mb 0.00 in0.0 mm 0.00 in0.0 mm 0.00 in0.0 mm
06:15 PM 73.4°F23.0°C 58.4°F14.7°C 59% 1.4 mph SSE2.3 kmh SSE 13.0 mph20.9 kmh 29.88 in1011.9 mb 0.00 in0.0 mm 0.00 in0.0 mm 0.00 in0.0 mm
06:10 PM 74.2°F23.4°C 57.1°F13.9°C 55% 2.3 mph S3.7 kmh S 13.0 mph20.9 kmh 29.88 in1011.9 mb 0.00 in0.0 mm 0.00 in0.0 mm 0.00 in0.0 mm
06:05 PM 74.6°F23.7°C 56.5°F13.6°C 53% 1.7 mph S2.7 kmh S 15.0 mph24.1 kmh 29.88 in1011.9 mb 0.00 in0.0 mm 0.00 in0.0 mm 0.00 in0.0 mm
06:00 PM 75.0°F23.9°C 55.7°F13.2°C 51% 7.8 mph S12.6 kmh S 15.0 mph24.1 kmh 29.89 in1012.2 mb 0.00 in0.0 mm 0.00 in0.0 mm 0.00 in0.0 mm
05:55 PM 75.3°F24.1°C 56.0°F13.3°C 51% 5.1 mph SSE8.2 kmh SSE 15.0 mph24.1 kmh 29.89 in1012.2 mb 0.00 in0.0 mm 0.00 in0.0 mm 0.00 in0.0 mm
05:50 PM 75.5°F24.2°C 55.6°F13.1°C 50% 6.8 mph S10.9 kmh S 15.0 mph24.1 kmh 29.88 in1011.9 mb 0.00 in0.0 mm 0.00 in0.0 mm 0.00 in0.0 mm
05:45 PM 75.8°F24.3°C 57.0°F13.9°C 52% 4.7 mph S7.6 kmh S 15.0 mph24.1 kmh 29.89 in1012.2 mb 0.00 in0.0 mm 0.00 in0.0 mm 0.00 in0.0 mm
05:40 PM 76.1°F24.5°C 56.8°F13.8°C 51% 5.2 mph S8.4 kmh S 15.0 mph24.1 kmh 29.88 in1011.9 mb 0.00 in0.0 mm 0.00 in0.0 mm 0.00 in0.0 mm
05:35 PM 76.5°F24.7°C 57.1°F13.9°C 51% 7.6 mph S12.2 kmh S 13.8 mph22.2 kmh 29.88 in1011.9 mb 0.00 in0.0 mm 0.00 in0.0 mm 0.00 in0.0 mm
05:30 PM 76.7°F24.8°C 57.3°F14.1°C 51% 6.1 mph S9.8 kmh S 13.8 mph22.2 kmh 29.88 in1011.9 mb 0.00 in0.0 mm 0.00 in0.0 mm 0.00 in0.0 mm
05:24 PM 76.8°F24.9°C 59.1°F15.1°C 54% 3.4 mph S5.5 kmh S 11.3 mph18.2 kmh 29.89 in1012.2 mb 0.00 in0.0 mm 0.00 in0.0 mm 0.00 in0.0 mm
05:19 PM 76.9°F24.9°C 59.7°F15.4°C 55% 2.9 mph SSE4.7 kmh SSE 14.0 mph22.5 kmh 29.90 in1012.5 mb 0.00 in0.0 mm 0.00 in0.0 mm 0.00 in0.0 mm
05:14 PM 76.7°F24.8°C 59.0°F15.0°C 54% 6.0 mph S9.7 kmh S 14.0 mph22.5 kmh 29.90 in1012.5 mb 0.00 in0.0 mm 0.00 in0.0 mm 0.00 in0.0 mm
05:09 PM 76.7°F24.8°C 59.5°F15.3°C 55% 4.0 mph SE6.4 kmh SE 16.3 mph26.2 kmh 29.91 in1012.9 mb 0.00 in0.0 mm 0.00 in0.0 mm 0.00 in0.0 mm
05:04 PM 76.4°F24.7°C 59.7°F15.4°C 56% 5.8 mph S9.3 kmh S 16.3 mph26.2 kmh 29.90 in1012.5 mb 0.00 in0.0 mm 0.00 in0.0 mm 0.00 in0.0 mm
04:59 PM 76.1°F24.5°C 58.9°F14.9°C 55% 6.3 mph SSW10.1 kmh SSW 16.3 mph26.2 kmh 29.90 in1012.5 mb 0.00 in0.0 mm 0.00 in0.0 mm 0.00 in0.0 mm
04:54 PM 76.2°F24.6°C 59.5°F15.3°C 56% 8.0 mph S12.9 kmh S 16.3 mph26.2 kmh 29.90 in1012.5 mb 0.00 in0.0 mm 0.00 in0.0 mm 0.00 in0.0 mm
04:49 PM 75.1°F23.9°C 59.0°F15.0°C 57% 4.2 mph S6.8 kmh S 12.5 mph20.1 kmh 29.90 in1012.5 mb 0.00 in0.0 mm 0.00 in0.0 mm 0.00 in0.0 mm
04:44 PM 74.4°F23.6°C 59.3°F15.2°C 59% 3.1 mph S5.0 kmh S 12.5 mph20.1 kmh 29.91 in1012.9 mb 0.00 in0.0 mm 0.00 in0.0 mm 0.00 in0.0 mm
04:39 PM 74.4°F23.6°C 58.8°F14.9°C 58% 4.4 mph S7.1 kmh S 13.8 mph22.2 kmh 29.91 in1012.9 mb 0.00 in0.0 mm 0.00 in0.0 mm 0.00 in0.0 mm
04:34 PM 74.8°F23.8°C 59.2°F15.1°C 58% 4.9 mph SSW7.9 kmh SSW 13.8 mph22.2 kmh 29.91 in1012.9 mb 0.00 in0.0 mm 0.00 in0.0 mm 0.00 in0.0 mm
04:29 PM 75.5°F24.2°C 58.9°F14.9°C 56% 4.4 mph S7.1 kmh S 12.5 mph20.1 kmh 29.91 in1012.9 mb 0.00 in0.0 mm 0.00 in0.0 mm 0.00 in0.0 mm
04:24 PM 75.9°F24.4°C 59.3°F15.2°C 56% 5.2 mph S8.4 kmh S 13.0 mph20.9 kmh 29.91 in1012.9 mb 0.00 in0.0 mm 0.00 in0.0 mm 0.00 in0.0 mm
04:19 PM 75.6°F24.2°C 60.0°F15.6°C 58% 1.9 mph S3.1 kmh S 13.0 mph20.9 kmh 29.91 in1012.9 mb 0.00 in0.0 mm 0.00 in0.0 mm 0.00 in0.0 mm
04:14 PM 75.5°F24.2°C 59.4°F15.2°C 57% 2.6 mph ESE4.2 kmh ESE 15.0 mph24.1 kmh 29.92 in1013.2 mb 0.00 in0.0 mm 0.00 in0.0 mm 0.00 in0.0 mm
04:09 PM 75.6°F24.2°C 58.5°F14.7°C 55% 7.6 mph SSW12.2 kmh SSW 15.0 mph24.1 kmh 29.92 in1013.2 mb 0.00 in0.0 mm 0.00 in0.0 mm 0.00 in0.0 mm
04:04 PM 76.2°F24.6°C 59.0°F15.0°C 55% 7.2 mph S11.6 kmh S 15.0 mph24.1 kmh 29.93 in1013.5 mb 0.00 in0.0 mm 0.00 in0.0 mm 0.00 in0.0 mm
03:59 PM 75.8°F24.3°C 59.2°F15.1°C 56% 3.1 mph S5.0 kmh S 11.0 mph17.7 kmh 29.94 in1013.9 mb 0.00 in0.0 mm 0.00 in0.0 mm 0.00 in0.0 mm
03:54 PM 75.7°F24.3°C 59.1°F15.1°C 56% 3.2 mph S5.1 kmh S 18.0 mph29.0 kmh 29.94 in1013.9 mb 0.00 in0.0 mm 0.00 in0.0 mm 0.00 in0.0 mm
03:49 PM 75.5°F24.2°C 58.9°F14.9°C 56% 2.5 mph SSE4.0 kmh SSE 18.0 mph29.0 kmh 29.94 in1013.9 mb 0.00 in0.0 mm 0.00 in0.0 mm 0.00 in0.0 mm
03:44 PM 75.1°F23.9°C 58.0°F14.4°C 55% 7.0 mph S11.3 kmh S 22.5 mph36.2 kmh 29.95 in1014.2 mb 0.00 in0.0 mm 0.00 in0.0 mm 0.00 in0.0 mm
03:39 PM 74.9°F23.8°C 58.3°F14.6°C 56% 6.6 mph S10.6 kmh S 22.5 mph36.2 kmh 29.95 in1014.2 mb 0.00 in0.0 mm 0.00 in0.0 mm 0.00 in0.0 mm
03:34 PM 75.2°F24.0°C 57.6°F14.2°C 54% 7.2 mph SW11.6 kmh SW 18.8 mph30.3 kmh 29.95 in1014.2 mb 0.00 in0.0 mm 0.00 in0.0 mm 0.00 in0.0 mm
03:29 PM 75.4°F24.1°C 58.8°F14.9°C 56% 5.1 mph S8.2 kmh S 16.3 mph26.2 kmh 29.95 in1014.2 mb 0.00 in0.0 mm 0.00 in0.0 mm 0.00 in0.0 mm
03:24 PM 75.3°F24.1°C 57.7°F14.3°C 54% 7.1 mph SSE11.4 kmh SSE 16.3 mph26.2 kmh 29.95 in1014.2 mb 0.00 in0.0 mm 0.00 in0.0 mm 0.00 in0.0 mm
03:19 PM 75.5°F24.2°C 58.9°F14.9°C 56% 6.8 mph S10.9 kmh S 13.8 mph22.2 kmh 29.96 in1014.6 mb 0.00 in0.0 mm 0.00 in0.0 mm 0.00 in0.0 mm
03:14 PM 75.6°F24.2°C 58.8°F14.9°C 56% 4.5 mph SSE7.2 kmh SSE 13.8 mph22.2 kmh 29.96 in1014.6 mb 0.00 in0.0 mm 0.00 in0.0 mm 0.00 in0.0 mm
03:09 PM 75.6°F24.2°C 59.0°F15.0°C 56% 2.4 mph S3.9 kmh S 15.0 mph24.1 kmh 29.96 in1014.6 mb 0.00 in0.0 mm 0.00 in0.0 mm 0.00 in0.0 mm
03:04 PM 75.7°F24.3°C 58.6°F14.8°C 55% 7.3 mph S11.7 kmh S 15.0 mph24.1 kmh 29.97 in1014.9 mb 0.00 in0.0 mm 0.00 in0.0 mm 0.00 in0.0 mm
02:59 PM 75.6°F24.2°C 60.5°F15.8°C 59% 3.8 mph SW6.1 kmh SW 8.8 mph14.2 kmh 29.97 in1014.9 mb 0.00 in0.0 mm 0.00 in0.0 mm 0.00 in0.0 mm
02:54 PM 75.3°F24.1°C 59.5°F15.3°C 58% 5.3 mph SW8.5 kmh SW 9.0 mph14.5 kmh 29.97 in1014.9 mb 0.00 in0.0 mm 0.00 in0.0 mm 0.00 in0.0 mm
02:49 PM 75.3°F24.1°C 59.5°F15.3°C 58% 5.4 mph S8.7 kmh S 9.0 mph14.5 kmh 29.98 in1015.2 mb 0.00 in0.0 mm 0.00 in0.0 mm 0.00 in0.0 mm
02:44 PM 75.1°F23.9°C 60.0°F15.6°C 59% 3.8 mph NE6.1 kmh NE 11.3 mph18.2 kmh 29.98 in1015.2 mb 0.00 in0.0 mm 0.00 in0.0 mm 0.00 in0.0 mm
02:39 PM 75.1°F23.9°C 60.0°F15.6°C 59% 5.1 mph S8.2 kmh S 11.3 mph18.2 kmh 29.99 in1015.6 mb 0.00 in0.0 mm 0.00 in0.0 mm 0.00 in0.0 mm
02:34 PM 74.8°F23.8°C 60.4°F15.8°C 61% 4.2 mph E6.8 kmh E 8.8 mph14.2 kmh 29.99 in1015.6 mb 0.00 in0.0 mm 0.00 in0.0 mm 0.00 in0.0 mm
02:29 PM 74.9°F23.8°C 60.8°F16.0°C 61% 2.8 mph SSE4.5 kmh SSE 10.0 mph16.1 kmh 29.99 in1015.6 mb 0.00 in0.0 mm 0.00 in0.0 mm 0.00 in0.0 mm
02:24 PM 74.8°F23.8°C 60.0°F15.6°C 60% 4.9 mph S7.9 kmh S 10.0 mph16.1 kmh 30.00 in1015.9 mb 0.00 in0.0 mm 0.00 in0.0 mm 0.00 in0.0 mm
02:19 PM 74.9°F23.8°C 60.1°F15.6°C 60% 2.4 mph S3.9 kmh S 12.5 mph20.1 kmh 30.00 in1015.9 mb 0.00 in0.0 mm 0.00 in0.0 mm 0.00 in0.0 mm
02:14 PM 74.7°F23.7°C 60.4°F15.8°C 61% 5.7 mph SSW9.2 kmh SSW 12.5 mph20.1 kmh 30.00 in1015.9 mb 0.00 in0.0 mm 0.00 in0.0 mm 0.00 in0.0 mm
02:09 PM 74.4°F23.6°C 61.2°F16.2°C 63% 6.6 mph S10.6 kmh S 12.5 mph20.1 kmh 30.00 in1015.9 mb 0.00 in0.0 mm 0.00 in0.0 mm 0.00 in0.0 mm
02:04 PM 74.0°F23.3°C 60.8°F16.0°C 63% 3.6 mph SSW5.8 kmh SSW 12.5 mph20.1 kmh 30.01 in1016.3 mb 0.00 in0.0 mm 0.00 in0.0 mm 0.00 in0.0 mm
01:59 PM 73.4°F23.0°C 59.6°F15.3°C 62% 6.6 mph SSW10.6 kmh SSW 12.5 mph20.1 kmh 30.01 in1016.3 mb 0.00 in0.0 mm 0.00 in0.0 mm 0.00 in0.0 mm
01:54 PM 73.4°F23.0°C 60.5°F15.8°C 64% 2.4 mph SW3.9 kmh SW 12.5 mph20.1 kmh 30.01 in1016.3 mb 0.00 in0.0 mm 0.00 in0.0 mm 0.00 in0.0 mm
01:49 PM 73.3°F22.9°C 60.2°F15.7°C 63% 7.8 mph S12.6 kmh S 12.5 mph20.1 kmh 30.01 in1016.3 mb 0.00 in0.0 mm 0.00 in0.0 mm 0.00 in0.0 mm
01:43 PM 73.5°F23.1°C 60.3°F15.7°C 63% 3.5 mph S5.6 kmh S 15.0 mph24.1 kmh 30.01 in1016.3 mb 0.00 in0.0 mm 0.00 in0.0 mm 0.00 in0.0 mm
01:38 PM 73.3°F22.9°C 60.2°F15.7°C 63% 8.0 mph S12.9 kmh S 15.0 mph24.1 kmh 30.02 in1016.6 mb 0.00 in0.0 mm 0.00 in0.0 mm 0.00 in0.0 mm
01:33 PM 73.5°F23.1°C 61.0°F16.1°C 65% 4.4 mph S7.1 kmh S 15.0 mph24.1 kmh 30.02 in1016.6 mb 0.00 in0.0 mm 0.00 in0.0 mm 0.00 in0.0 mm
01:28 PM 72.9°F22.7°C 61.5°F16.4°C 67% 4.3 mph SSW6.9 kmh SSW 16.3 mph26.2 kmh 30.02 in1016.6 mb 0.00 in0.0 mm 0.00 in0.0 mm 0.00 in0.0 mm
01:23 PM 73.1°F22.8°C 60.8°F16.0°C 65% 7.4 mph S11.9 kmh S 17.5 mph28.2 kmh 30.03 in1016.9 mb 0.00 in0.0 mm 0.00 in0.0 mm 0.00 in0.0 mm
01:18 PM 73.4°F23.0°C 60.7°F15.9°C 64% 9.8 mph S15.8 kmh S 17.5 mph28.2 kmh 30.03 in1016.9 mb 0.00 in0.0 mm 0.00 in0.0 mm 0.00 in0.0 mm
01:13 PM 73.4°F23.0°C 61.1°F16.2°C 65% 4.0 mph S6.4 kmh S 10.0 mph16.1 kmh 30.03 in1016.9 mb 0.00 in0.0 mm 0.00 in0.0 mm 0.00 in0.0 mm
01:08 PM 72.8°F22.7°C 61.0°F16.1°C 66% 2.1 mph E3.4 kmh E 10.0 mph16.1 kmh 30.03 in1016.9 mb 0.00 in0.0 mm 0.00 in0.0 mm 0.00 in0.0 mm
01:03 PM 72.6°F22.6°C 60.8°F16.0°C 66% 2.6 mph S4.2 kmh S 10.0 mph16.1 kmh 30.03 in1016.9 mb 0.00 in0.0 mm 0.00 in0.0 mm 0.00 in0.0 mm
12:58 PM 72.3°F22.4°C 60.5°F15.8°C 66% 2.5 mph SE4.0 kmh SE 12.5 mph20.1 kmh 30.04 in1017.3 mb 0.00 in0.0 mm 0.00 in0.0 mm 0.00 in0.0 mm
12:53 PM 71.9°F22.2°C 61.0°F16.1°C 68% 4.3 mph SE6.9 kmh SE 12.5 mph20.1 kmh 30.04 in1017.3 mb 0.00 in0.0 mm 0.00 in0.0 mm 0.00 in0.0 mm
12:48 PM 71.3°F21.8°C 60.8°F16.0°C 69% 4.4 mph S7.1 kmh S 13.8 mph22.2 kmh 30.04 in1017.3 mb 0.00 in0.0 mm 0.00 in0.0 mm 0.00 in0.0 mm
12:43 PM 70.8°F21.6°C 60.7°F15.9°C 70% 3.8 mph SSE6.1 kmh SSE 13.8 mph22.2 kmh 30.04 in1017.3 mb 0.00 in0.0 mm 0.00 in0.0 mm 0.00 in0.0 mm
12:38 PM 70.7°F21.5°C 60.6°F15.9°C 70% 5.3 mph SW8.5 kmh SW 10.0 mph16.1 kmh 30.04 in1017.3 mb 0.00 in0.0 mm 0.00 in0.0 mm 0.00 in0.0 mm
12:33 PM 70.9°F21.6°C 60.8°F16.0°C 70% 4.4 mph SSW7.1 kmh SSW 7.5 mph12.1 kmh 30.04 in1017.3 mb 0.00 in0.0 mm 0.00 in0.0 mm 0.00 in0.0 mm
12:28 PM 70.8°F21.6°C 61.1°F16.2°C 71% 1.9 mph S3.1 kmh S 8.0 mph12.9 kmh 30.04 in1017.3 mb 0.00 in0.0 mm 0.00 in0.0 mm 0.00 in0.0 mm
12:23 PM 70.4°F21.3°C 61.5°F16.4°C 73% 3.7 mph SSE6.0 kmh SSE 8.0 mph12.9 kmh 30.05 in1017.6 mb 0.00 in0.0 mm 0.00 in0.0 mm 0.00 in0.0 mm
12:18 PM 70.0°F21.1°C 61.5°F16.4°C 74% 2.4 mph SSE3.9 kmh SSE 10.0 mph16.1 kmh 30.05 in1017.6 mb 0.00 in0.0 mm 0.00 in0.0 mm 0.00 in0.0 mm
12:13 PM 69.7°F20.9°C 61.2°F16.2°C 74% 5.1 mph S8.2 kmh S 10.0 mph16.1 kmh 30.05 in1017.6 mb 0.00 in0.0 mm 0.00 in0.0 mm 0.00 in0.0 mm
12:08 PM 69.4°F20.8°C 61.5°F16.4°C 76% 1.4 mph E2.3 kmh E 13.8 mph22.2 kmh 30.05 in1017.6 mb 0.00 in0.0 mm 0.00 in0.0 mm 0.00 in0.0 mm
12:03 PM 68.6°F20.3°C 60.7°F15.9°C 76% 6.0 mph S9.7 kmh S 13.8 mph22.2 kmh 30.06 in1017.9 mb 0.00 in0.0 mm 0.00 in0.0 mm 0.00 in0.0 mm
11:57 AM 68.0°F20.0°C 60.3°F15.7°C 76% 2.2 mph S3.5 kmh S 7.5 mph12.1 kmh 30.06 in1017.9 mb 0.00 in0.0 mm 0.00 in0.0 mm 0.00 in0.0 mm
11:53 AM 67.9°F19.9°C 60.2°F15.7°C 76% 1.5 mph SW2.4 kmh SW 7.5 mph12.1 kmh 30.06 in1017.9 mb 0.00 in0.0 mm 0.00 in0.0 mm 0.00 in0.0 mm
11:48 AM 67.6°F19.8°C 60.2°F15.7°C 77% 3.4 mph WSW5.5 kmh WSW 7.5 mph12.1 kmh 30.05 in1017.6 mb 0.00 in0.0 mm 0.00 in0.0 mm 0.00 in0.0 mm
11:43 AM 66.8°F19.3°C 59.5°F15.3°C 77% 1.3 mph SW2.1 kmh SW 2.5 mph4.0 kmh 30.06 in1017.9 mb 0.00 in0.0 mm 0.00 in0.0 mm 0.00 in0.0 mm
11:37 AM 66.0°F18.9°C 58.9°F14.9°C 78% 2.1 mph SW3.4 kmh SW 2.5 mph4.0 kmh 30.06 in1017.9 mb 0.00 in0.0 mm 0.00 in0.0 mm 0.00 in0.0 mm
11:32 AM 65.6°F18.7°C 58.6°F14.8°C 78% 1.3 mph SW2.1 kmh SW 3.0 mph4.8 kmh 30.06 in1017.9 mb 0.00 in0.0 mm 0.00 in0.0 mm 0.00 in0.0 mm
11:27 AM 65.3°F18.5°C 57.9°F14.4°C 77% 1.3 mph SW2.1 kmh SW 3.0 mph4.8 kmh 30.06 in1017.9 mb 0.00 in0.0 mm 0.00 in0.0 mm 0.00 in0.0 mm
11:22 AM 65.3°F18.5°C 57.5°F14.2°C 76% 1.4 mph WSW2.3 kmh WSW 3.8 mph6.1 kmh 30.06 in1017.9 mb 0.00 in0.0 mm 0.00 in0.0 mm 0.00 in0.0 mm
11:17 AM 65.4°F18.6°C 58.1°F14.5°C 77% 2.2 mph SW3.5 kmh SW 3.8 mph6.1 kmh 30.06 in1017.9 mb 0.00 in0.0 mm 0.00 in0.0 mm 0.00 in0.0 mm
11:12 AM 64.9°F18.3°C 57.6°F14.2°C 77% 1.3 mph WSW2.1 kmh WSW 2.5 mph4.0 kmh 30.06 in1017.9 mb 0.00 in0.0 mm 0.00 in0.0 mm 0.00 in0.0 mm
11:07 AM 64.8°F18.2°C 57.5°F14.2°C 77% 1.9 mph SW3.1 kmh SW 2.5 mph4.0 kmh 30.06 in1017.9 mb 0.00 in0.0 mm 0.00 in0.0 mm 0.00 in0.0 mm
11:02 AM 64.7°F18.2°C 57.0°F13.9°C 76% 1.6 mph W2.6 kmh W 2.5 mph4.0 kmh 30.06 in1017.9 mb 0.00 in0.0 mm 0.00 in0.0 mm 0.00 in0.0 mm
10:57 AM 65.2°F18.4°C 57.6°F14.2°C 76% 1.8 mph WSW2.9 kmh WSW 3.0 mph4.8 kmh 30.06 in1017.9 mb 0.00 in0.0 mm 0.00 in0.0 mm 0.00 in0.0 mm
10:52 AM 65.3°F18.5°C 58.4°F14.7°C 78% 1.3 mph WSW2.1 kmh WSW 3.0 mph4.8 kmh 30.06 in1017.9 mb 0.00 in0.0 mm 0.00 in0.0 mm 0.00 in0.0 mm
10:47 AM 64.5°F18.1°C 58.3°F14.6°C 80% 1.3 mph S2.1 kmh S 3.8 mph6.1 kmh 30.06 in1017.9 mb 0.00 in0.0 mm 0.00 in0.0 mm 0.00 in0.0 mm
10:42 AM 63.6°F17.6°C 57.0°F13.9°C 79% 1.9 mph WSW3.1 kmh WSW 3.8 mph6.1 kmh 30.06 in1017.9 mb 0.00 in0.0 mm 0.00 in0.0 mm 0.00 in0.0 mm
10:37 AM 62.6°F17.0°C 57.0°F13.9°C 82% 1.7 mph SW2.7 kmh SW 3.8 mph6.1 kmh 30.06 in1017.9 mb 0.00 in0.0 mm 0.00 in0.0 mm 0.00 in0.0 mm
10:32 AM 62.0°F16.7°C 55.8°F13.2°C 80% 1.4 mph WSW2.3 kmh WSW 3.8 mph6.1 kmh 30.07 in1018.3 mb 0.00 in0.0 mm 0.00 in0.0 mm 0.00 in0.0 mm
10:27 AM 61.6°F16.4°C 55.4°F13.0°C 80% 1.3 mph S2.1 kmh S 2.5 mph4.0 kmh 30.07 in1018.3 mb 0.00 in0.0 mm 0.00 in0.0 mm 0.00 in0.0 mm
10:22 AM 61.4°F16.3°C 55.6°F13.1°C 81% 1.3 mph SW2.1 kmh SW 3.0 mph4.8 kmh 30.07 in1018.3 mb 0.00 in0.0 mm 0.00 in0.0 mm 0.00 in0.0 mm
10:17 AM 61.3°F16.3°C 55.5°F13.1°C 81% 1.3 mph WSW2.1 kmh WSW 3.0 mph4.8 kmh 30.07 in1018.3 mb 0.00 in0.0 mm 0.00 in0.0 mm 0.00 in0.0 mm
10:12 AM 60.9°F16.1°C 55.1°F12.8°C 81% 1.3 mph S2.1 kmh S 3.8 mph6.1 kmh 30.06 in1017.9 mb 0.00 in0.0 mm 0.00 in0.0 mm 0.00 in0.0 mm
10:07 AM 61.2°F16.2°C 55.0°F12.8°C 80% 1.3 mph SW2.1 kmh SW 3.8 mph6.1 kmh 30.07 in1018.3 mb 0.00 in0.0 mm 0.00 in0.0 mm 0.00 in0.0 mm
10:02 AM 61.4°F16.3°C 55.2°F12.9°C 80% 1.3 mph SW2.1 kmh SW 3.8 mph6.1 kmh 30.07 in1018.3 mb 0.00 in0.0 mm 0.00 in0.0 mm 0.00 in0.0 mm
09:57 AM 60.9°F16.1°C 55.7°F13.2°C 83% 1.6 mph SW2.6 kmh SW 2.5 mph4.0 kmh 30.07 in1018.3 mb 0.00 in0.0 mm 0.00 in0.0 mm 0.00 in0.0 mm
09:52 AM 60.5°F15.8°C 55.7°F13.2°C 84% 1.6 mph SW2.6 kmh SW 2.5 mph4.0 kmh 30.07 in1018.3 mb 0.00 in0.0 mm 0.00 in0.0 mm 0.00 in0.0 mm
09:47 AM 59.7°F15.4°C 55.5°F13.1°C 86% Calm Calm 1.3 mph2.1 kmh 30.07 in1018.3 mb 0.00 in0.0 mm 0.00 in0.0 mm 0.00 in0.0 mm
09:42 AM 58.9°F14.9°C 55.0°F12.8°C 87% 1.3 mph NW2.1 kmh NW 1.3 mph2.1 kmh 30.07 in1018.3 mb 0.00 in0.0 mm 0.00 in0.0 mm 0.00 in0.0 mm
09:37 AM 58.1°F14.5°C 54.5°F12.5°C 88% Calm Calm 2.0 mph3.2 kmh 30.07 in1018.3 mb 0.00 in0.0 mm 0.00 in0.0 mm 0.00 in0.0 mm
09:32 AM 57.5°F14.2°C 54.0°F12.2°C 88% Calm Calm 2.0 mph3.2 kmh 30.07 in1018.3 mb 0.00 in0.0 mm 0.00 in0.0 mm 0.00 in0.0 mm
09:27 AM 57.3°F14.1°C 54.4°F12.4°C 90% Calm Calm 2.5 mph4.0 kmh 30.07 in1018.3 mb 0.00 in0.0 mm 0.00 in0.0 mm 0.00 in0.0 mm
09:22 AM 57.1°F13.9°C 54.5°F12.5°C 91% 1.7 mph NW2.7 kmh NW 2.5 mph4.0 kmh 30.07 in1018.3 mb 0.00 in0.0 mm 0.00 in0.0 mm 0.00 in0.0 mm
09:17 AM 56.6°F13.7°C 54.3°F12.4°C 92% 1.3 mph NW2.1 kmh NW 2.5 mph4.0 kmh 30.07 in1018.3 mb 0.00 in0.0 mm 0.00 in0.0 mm 0.00 in0.0 mm
09:12 AM 56.2°F13.4°C 54.2°F12.3°C 93% 1.3 mph N2.1 kmh N 2.5 mph4.0 kmh 30.07 in1018.3 mb 0.00 in0.0 mm 0.00 in0.0 mm 0.00 in0.0 mm
09:07 AM 55.8°F13.2°C 54.4°F12.4°C 95% 1.3 mph NNE2.1 kmh NNE 1.3 mph2.1 kmh 30.07 in1018.3 mb 0.00 in0.0 mm 0.00 in0.0 mm 0.00 in0.0 mm
09:02 AM 55.2°F12.9°C 54.0°F12.2°C 96% Calm Calm 1.3 mph2.1 kmh 30.07 in1018.3 mb 0.00 in0.0 mm 0.00 in0.0 mm 0.00 in0.0 mm
08:57 AM 54.8°F12.7°C 53.6°F12.0°C 96% Calm Calm 1.3 mph2.1 kmh 30.07 in1018.3 mb 0.00 in0.0 mm 0.00 in0.0 mm 0.00 in0.0 mm
08:52 AM 54.4°F12.4°C 53.2°F11.8°C 96% 1.3 mph E2.1 kmh E 1.3 mph2.1 kmh 30.07 in1018.3 mb 0.00 in0.0 mm 0.00 in0.0 mm 0.00 in0.0 mm
08:47 AM 53.7°F12.1°C 52.6°F11.4°C 96% Calm Calm -- 30.07 in1018.3 mb 0.00 in0.0 mm 0.00 in0.0 mm 0.00 in0.0 mm
08:42 AM 52.9°F11.6°C 51.8°F11.0°C 96% Calm Calm -- 30.07 in1018.3 mb 0.00 in0.0 mm 0.00 in0.0 mm 0.00 in0.0 mm
08:36 AM 52.2°F11.2°C 51.1°F10.6°C 96% Calm Calm 1.0 mph1.6 kmh 30.07 in1018.3 mb 0.00 in0.0 mm 0.00 in0.0 mm 0.00 in0.0 mm
08:32 AM 51.6°F10.9°C 50.5°F10.3°C 96% Calm Calm 1.3 mph2.1 kmh 30.07 in1018.3 mb 0.00 in0.0 mm 0.00 in0.0 mm 0.00 in0.0 mm
08:26 AM 51.0°F10.6°C 49.9°F9.9°C 96% Calm Calm 1.3 mph2.1 kmh 30.07 in1018.3 mb 0.00 in0.0 mm 0.00 in0.0 mm 0.00 in0.0 mm
08:21 AM 50.5°F10.3°C 49.4°F9.7°C 96% 1.3 mph E2.1 kmh E 1.3 mph2.1 kmh 30.07 in1018.3 mb 0.00 in0.0 mm 0.00 in0.0 mm 0.00 in0.0 mm
08:16 AM 50.2°F10.1°C 49.1°F9.5°C 96% Calm Calm -- 30.07 in1018.3 mb 0.00 in0.0 mm 0.00 in0.0 mm 0.00 in0.0 mm
08:11 AM 50.0°F10.0°C 48.9°F9.4°C 96% Calm Calm -- 30.07 in1018.3 mb 0.00 in0.0 mm 0.00 in0.0 mm 0.00 in0.0 mm
08:06 AM 49.9°F9.9°C 48.5°F9.2°C 95% Calm Calm -- 30.06 in1017.9 mb 0.00 in0.0 mm 0.00 in0.0 mm 0.00 in0.0 mm
08:01 AM 49.9°F9.9°C 48.8°F9.3°C 96% Calm Calm -- 30.06 in1017.9 mb 0.00 in0.0 mm 0.00 in0.0 mm 0.00 in0.0 mm
07:56 AM 49.8°F9.9°C 48.4°F9.1°C 95% Calm Calm -- 30.06 in1017.9 mb 0.00 in0.0 mm 0.00 in0.0 mm 0.00 in0.0 mm
07:51 AM 49.7°F9.8°C 48.3°F9.1°C 95% Calm Calm -- 30.06 in1017.9 mb 0.00 in0.0 mm 0.00 in0.0 mm 0.00 in0.0 mm
07:46 AM 49.8°F9.9°C 48.4°F9.1°C 95% Calm Calm -- 30.06 in1017.9 mb 0.00 in0.0 mm 0.00 in0.0 mm 0.00 in0.0 mm
07:41 AM 49.8°F9.9°C 48.4°F9.1°C 95% Calm Calm -- 30.06 in1017.9 mb 0.00 in0.0 mm 0.00 in0.0 mm 0.00 in0.0 mm
07:36 AM 49.9°F9.9°C 48.5°F9.2°C 95% Calm Calm -- 30.06 in1017.9 mb 0.00 in0.0 mm 0.00 in0.0 mm 0.00 in0.0 mm
07:31 AM 49.9°F9.9°C 48.5°F9.2°C 95% Calm Calm -- 30.05 in1017.6 mb 0.00 in0.0 mm 0.00 in0.0 mm 0.00 in0.0 mm
07:26 AM 49.9°F9.9°C 48.5°F9.2°C 95% Calm Calm -- 30.05 in1017.6 mb 0.00 in0.0 mm 0.00 in0.0 mm 0.00 in0.0 mm
07:21 AM 50.1°F10.1°C 48.7°F9.3°C 95% Calm Calm -- 30.05 in1017.6 mb 0.00 in0.0 mm 0.00 in0.0 mm 0.00 in0.0 mm
07:16 AM 50.2°F10.1°C 48.8°F9.3°C 95% Calm Calm -- 30.05 in1017.6 mb 0.00 in0.0 mm 0.00 in0.0 mm 0.00 in0.0 mm
07:11 AM 50.4°F10.2°C 49.0°F9.4°C 95% Calm Calm 1.0 mph1.6 kmh 30.05 in1017.6 mb 0.00 in0.0 mm 0.00 in0.0 mm 0.00 in0.0 mm
07:06 AM 50.6°F10.3°C 49.2°F9.6°C 95% Calm Calm 1.0 mph1.6 kmh 30.05 in1017.6 mb 0.00 in0.0 mm 0.00 in0.0 mm 0.00 in0.0 mm
07:01 AM 50.7°F10.4°C 49.3°F9.6°C 95% Calm Calm 1.3 mph2.1 kmh 30.05 in1017.6 mb 0.00 in0.0 mm 0.00 in0.0 mm 0.00 in0.0 mm
06:56 AM 50.9°F10.5°C 49.5°F9.7°C 95% Calm Calm 1.3 mph2.1 kmh 30.04 in1017.3 mb 0.00 in0.0 mm 0.00 in0.0 mm 0.00 in0.0 mm
06:51 AM 50.8°F10.4°C 49.4°F9.7°C 95% Calm Calm 1.0 mph1.6 kmh 30.04 in1017.3 mb 0.00 in0.0 mm 0.00 in0.0 mm 0.00 in0.0 mm
06:46 AM 50.7°F10.4°C 49.3°F9.6°C 95% Calm Calm 1.3 mph2.1 kmh 30.04 in1017.3 mb 0.00 in0.0 mm 0.00 in0.0 mm 0.00 in0.0 mm
06:41 AM 50.7°F10.4°C 49.3°F9.6°C 95% 1.3 mph E2.1 kmh E 1.3 mph2.1 kmh 30.04 in1017.3 mb 0.00 in0.0 mm 0.00 in0.0 mm 0.00 in0.0 mm
06:36 AM 50.5°F10.3°C 49.1°F9.5°C 95% Calm Calm -- 30.04 in1017.3 mb 0.00 in0.0 mm 0.00 in0.0 mm 0.00 in0.0 mm
06:31 AM 50.4°F10.2°C 49.0°F9.4°C 95% Calm Calm -- 30.04 in1017.3 mb 0.00 in0.0 mm 0.00 in0.0 mm 0.00 in0.0 mm
06:26 AM 50.2°F10.1°C 48.8°F9.3°C 95% Calm Calm -- 30.04 in1017.3 mb 0.00 in0.0 mm 0.00 in0.0 mm 0.00 in0.0 mm
06:21 AM 50.1°F10.1°C 48.7°F9.3°C 95% Calm Calm -- 30.04 in1017.3 mb 0.00 in0.0 mm 0.00 in0.0 mm 0.00 in0.0 mm
06:16 AM 50.1°F10.1°C 48.7°F9.3°C 95% Calm Calm -- 30.04 in1017.3 mb 0.00 in0.0 mm 0.00 in0.0 mm 0.00 in0.0 mm
06:11 AM 50.1°F10.1°C 48.7°F9.3°C 95% Calm Calm -- 30.03 in1016.9 mb 0.00 in0.0 mm 0.00 in0.0 mm 0.00 in0.0 mm
06:06 AM 50.1°F10.1°C 48.7°F9.3°C 95% Calm Calm -- 30.03 in1016.9 mb 0.00 in0.0 mm 0.00 in0.0 mm 0.00 in0.0 mm
06:01 AM 50.0°F10.0°C 48.6°F9.2°C 95% Calm Calm -- 30.03 in1016.9 mb 0.00 in0.0 mm 0.00 in0.0 mm 0.00 in0.0 mm
05:56 AM 50.0°F10.0°C 48.6°F9.2°C 95% Calm Calm 1.0 mph1.6 kmh 30.03 in1016.9 mb 0.00 in0.0 mm 0.00 in0.0 mm 0.00 in0.0 mm
05:51 AM 50.2°F10.1°C 48.8°F9.3°C 95% Calm Calm 1.0 mph1.6 kmh 30.03 in1016.9 mb 0.00 in0.0 mm 0.00 in0.0 mm 0.00 in0.0 mm
05:46 AM 50.3°F10.2°C 48.9°F9.4°C 95% Calm Calm 1.3 mph2.1 kmh 30.02 in1016.6 mb 0.00 in0.0 mm 0.00 in0.0 mm 0.00 in0.0 mm
05:41 AM 50.3°F10.2°C 48.6°F9.2°C 94% Calm Calm 1.3 mph2.1 kmh 30.02 in1016.6 mb 0.00 in0.0 mm 0.00 in0.0 mm 0.00 in0.0 mm
05:36 AM 50.5°F10.3°C 49.1°F9.5°C 95% Calm Calm 1.0 mph1.6 kmh 30.01 in1016.3 mb 0.00 in0.0 mm 0.00 in0.0 mm 0.00 in0.0 mm
05:31 AM 50.6°F10.3°C 49.2°F9.6°C 95% Calm Calm 1.3 mph2.1 kmh 30.01 in1016.3 mb 0.00 in0.0 mm 0.00 in0.0 mm 0.00 in0.0 mm
05:26 AM 50.6°F10.3°C 49.2°F9.6°C 95% 1.3 mph E2.1 kmh E 1.3 mph2.1 kmh 30.01 in1016.3 mb 0.00 in0.0 mm 0.00 in0.0 mm 0.00 in0.0 mm
05:21 AM 50.7°F10.4°C 49.3°F9.6°C 95% Calm Calm -- 30.01 in1016.3 mb 0.00 in0.0 mm 0.00 in0.0 mm 0.00 in0.0 mm
05:16 AM 50.7°F10.4°C 49.3°F9.6°C 95% Calm Calm -- 30.01 in1016.3 mb 0.00 in0.0 mm 0.00 in0.0 mm 0.00 in0.0 mm
05:11 AM 50.8°F10.4°C 49.1°F9.5°C 94% Calm Calm -- 30.02 in1016.6 mb 0.00 in0.0 mm 0.00 in0.0 mm 0.00 in0.0 mm
05:06 AM 51.0°F10.6°C 49.6°F9.8°C 95% Calm Calm 1.0 mph1.6 kmh 30.02 in1016.6 mb 0.00 in0.0 mm 0.00 in0.0 mm 0.00 in0.0 mm
05:01 AM 51.0°F10.6°C 49.6°F9.8°C 95% Calm Calm 1.0 mph1.6 kmh 30.01 in1016.3 mb 0.00 in0.0 mm 0.00 in0.0 mm 0.00 in0.0 mm
04:56 AM 50.9°F10.5°C 49.5°F9.7°C 95% Calm Calm -- 30.02 in1016.6 mb 0.00 in0.0 mm 0.00 in0.0 mm 0.00 in0.0 mm
04:51 AM 50.9°F10.5°C 49.2°F9.6°C 94% Calm Calm -- 30.02 in1016.6 mb 0.00 in0.0 mm 0.00 in0.0 mm 0.00 in0.0 mm
04:45 AM 51.0°F10.6°C 49.3°F9.6°C 94% Calm Calm -- 30.02 in1016.6 mb 0.00 in0.0 mm 0.00 in0.0 mm 0.00 in0.0 mm
04:41 AM 51.2°F10.7°C 49.5°F9.7°C 94% Calm Calm 1.0 mph1.6 kmh 30.02 in1016.6 mb 0.00 in0.0 mm 0.00 in0.0 mm 0.00 in0.0 mm
04:36 AM 51.4°F10.8°C 50.0°F10.0°C 95% Calm Calm 1.0 mph1.6 kmh 30.02 in1016.6 mb 0.00 in0.0 mm 0.00 in0.0 mm 0.00 in0.0 mm
04:31 AM 51.2°F10.7°C 49.5°F9.7°C 94% Calm Calm 1.3 mph2.1 kmh 30.02 in1016.6 mb 0.00 in0.0 mm 0.00 in0.0 mm 0.00 in0.0 mm
04:25 AM 51.3°F10.7°C 49.6°F9.8°C 94% Calm Calm 1.3 mph2.1 kmh 30.02 in1016.6 mb 0.00 in0.0 mm 0.00 in0.0 mm 0.00 in0.0 mm
04:20 AM 51.4°F10.8°C 49.7°F9.8°C 94% Calm Calm 1.3 mph2.1 kmh 30.02 in1016.6 mb 0.00 in0.0 mm 0.00 in0.0 mm 0.00 in0.0 mm
04:15 AM 51.4°F10.8°C 49.7°F9.8°C 94% Calm Calm 1.3 mph2.1 kmh 30.02 in1016.6 mb 0.00 in0.0 mm 0.00 in0.0 mm 0.00 in0.0 mm
04:10 AM 51.4°F10.8°C 49.7°F9.8°C 94% Calm Calm 1.3 mph2.1 kmh 30.02 in1016.6 mb 0.00 in0.0 mm 0.00 in0.0 mm 0.00 in0.0 mm
04:05 AM 51.4°F10.8°C 49.7°F9.8°C 94% 1.3 mph E2.1 kmh E 1.3 mph2.1 kmh 30.03 in1016.9 mb 0.00 in0.0 mm 0.00 in0.0 mm 0.00 in0.0 mm
04:00 AM 51.5°F10.8°C 49.8°F9.9°C 94% 1.3 mph E2.1 kmh E 1.3 mph2.1 kmh 30.03 in1016.9 mb 0.00 in0.0 mm 0.00 in0.0 mm 0.00 in0.0 mm
03:55 AM 51.5°F10.8°C 49.8°F9.9°C 94% Calm Calm -- 30.03 in1016.9 mb 0.00 in0.0 mm 0.00 in0.0 mm 0.00 in0.0 mm
03:50 AM 51.6°F10.9°C 49.6°F9.8°C 93% Calm Calm -- 30.03 in1016.9 mb 0.00 in0.0 mm 0.00 in0.0 mm 0.00 in0.0 mm
03:45 AM 51.7°F10.9°C 49.7°F9.8°C 93% Calm Calm -- 30.04 in1017.3 mb 0.00 in0.0 mm 0.00 in0.0 mm 0.00 in0.0 mm
03:40 AM 51.8°F11.0°C 49.8°F9.9°C 93% Calm Calm -- 30.04 in1017.3 mb 0.00 in0.0 mm 0.00 in0.0 mm 0.00 in0.0 mm
03:35 AM 52.0°F11.1°C 50.0°F10.0°C 93% Calm Calm -- 30.04 in1017.3 mb 0.00 in0.0 mm 0.00 in0.0 mm 0.00 in0.0 mm
03:30 AM 52.1°F11.2°C 50.1°F10.1°C 93% Calm Calm -- 30.04 in1017.3 mb 0.00 in0.0 mm 0.00 in0.0 mm 0.00 in0.0 mm
03:25 AM 52.4°F11.3°C 50.4°F10.2°C 93% Calm Calm -- 30.04 in1017.3 mb 0.00 in0.0 mm 0.00 in0.0 mm 0.00 in0.0 mm
03:20 AM 52.5°F11.4°C 50.5°F10.3°C 93% Calm Calm -- 30.04 in1017.3 mb 0.00 in0.0 mm 0.00 in0.0 mm 0.00 in0.0 mm
03:15 AM 52.5°F11.4°C 50.5°F10.3°C 93% Calm Calm -- 30.03 in1016.9 mb 0.00 in0.0 mm 0.00 in0.0 mm 0.00 in0.0 mm
03:10 AM 52.5°F11.4°C 50.5°F10.3°C 93% Calm Calm -- 30.04 in1017.3 mb 0.00 in0.0 mm 0.00 in0.0 mm 0.00 in0.0 mm
03:05 AM 52.5°F11.4°C 50.5°F10.3°C 93% Calm Calm -- 30.04 in1017.3 mb 0.00 in0.0 mm 0.00 in0.0 mm 0.00 in0.0 mm
03:00 AM 52.5°F11.4°C 50.2°F10.1°C 92% Calm Calm -- 30.03 in1016.9 mb 0.00 in0.0 mm 0.00 in0.0 mm 0.00 in0.0 mm
02:55 AM 52.5°F11.4°C 50.2°F10.1°C 92% Calm Calm -- 30.03 in1016.9 mb 0.00 in0.0 mm 0.00 in0.0 mm 0.00 in0.0 mm
02:50 AM 52.6°F11.4°C 50.3°F10.2°C 92% Calm Calm -- 30.03 in1016.9 mb 0.00 in0.0 mm 0.00 in0.0 mm 0.00 in0.0 mm
02:45 AM 52.7°F11.5°C 50.4°F10.2°C 92% Calm Calm -- 30.03 in1016.9 mb 0.00 in0.0 mm 0.00 in0.0 mm 0.00 in0.0 mm
02:40 AM 52.9°F11.6°C 50.6°F10.3°C 92% Calm Calm -- 30.03 in1016.9 mb 0.00 in0.0 mm 0.00 in0.0 mm 0.00 in0.0 mm
02:35 AM 53.1°F11.7°C 50.8°F10.4°C 92% Calm Calm -- 30.03 in1016.9 mb 0.00 in0.0 mm 0.00 in0.0 mm 0.00 in0.0 mm
02:30 AM 53.3°F11.8°C 51.0°F10.6°C 92% Calm Calm -- 30.03 in1016.9 mb 0.00 in0.0 mm 0.00 in0.0 mm 0.00 in0.0 mm
02:25 AM 53.2°F11.8°C 51.2°F10.7°C 93% Calm Calm -- 30.03 in1016.9 mb 0.00 in0.0 mm 0.00 in0.0 mm 0.00 in0.0 mm
02:20 AM 53.2°F11.8°C 50.9°F10.5°C 92% Calm Calm -- 30.03 in1016.9 mb 0.00 in0.0 mm 0.00 in0.0 mm 0.00 in0.0 mm
02:15 AM 53.2°F11.8°C 50.9°F10.5°C 92% Calm Calm -- 30.03 in1016.9 mb 0.00 in0.0 mm 0.00 in0.0 mm 0.00 in0.0 mm
02:10 AM 53.2°F11.8°C 50.9°F10.5°C 92% Calm Calm -- 30.03 in1016.9 mb 0.00 in0.0 mm 0.00 in0.0 mm 0.00 in0.0 mm
02:05 AM 53.4°F11.9°C 51.1°F10.6°C 92% Calm Calm 1.0 mph1.6 kmh 30.03 in1016.9 mb 0.00 in0.0 mm 0.00 in0.0 mm 0.00 in0.0 mm
02:00 AM 53.4°F11.9°C 50.8°F10.4°C 91% Calm Calm 1.0 mph1.6 kmh 30.03 in1016.9 mb 0.00 in0.0 mm 0.00 in0.0 mm 0.00 in0.0 mm
01:55 AM 53.6°F12.0°C 51.0°F10.6°C 91% Calm Calm 1.3 mph2.1 kmh 30.03 in1016.9 mb 0.00 in0.0 mm 0.00 in0.0 mm 0.00 in0.0 mm
01:50 AM 53.8°F12.1°C 50.9°F10.5°C 90% Calm Calm 1.3 mph2.1 kmh 30.03 in1016.9 mb 0.00 in0.0 mm 0.00 in0.0 mm 0.00 in0.0 mm
01:45 AM 54.0°F12.2°C 51.1°F10.6°C 90% 1.3 mph E2.1 kmh E 1.3 mph2.1 kmh 30.04 in1017.3 mb 0.00 in0.0 mm 0.00 in0.0 mm 0.00 in0.0 mm
01:39 AM 54.3°F12.4°C 51.1°F10.6°C 89% Calm Calm 1.0 mph1.6 kmh 30.04 in1017.3 mb 0.00 in0.0 mm 0.00 in0.0 mm 0.00 in0.0 mm
01:35 AM 54.5°F12.5°C 51.3°F10.7°C 89% Calm Calm 1.3 mph2.1 kmh 30.04 in1017.3 mb 0.00 in0.0 mm 0.00 in0.0 mm 0.00 in0.0 mm
01:30 AM 54.6°F12.6°C 51.4°F10.8°C 89% 1.3 mph E2.1 kmh E 1.3 mph2.1 kmh 30.04 in1017.3 mb 0.00 in0.0 mm 0.00 in0.0 mm 0.00 in0.0 mm
01:25 AM 54.9°F12.7°C 51.4°F10.8°C 88% Calm Calm -- 30.04 in1017.3 mb 0.00 in0.0 mm 0.00 in0.0 mm 0.00 in0.0 mm
01:20 AM 55.3°F12.9°C 51.5°F10.8°C 87% Calm Calm 1.0 mph1.6 kmh 30.04 in1017.3 mb 0.00 in0.0 mm 0.00 in0.0 mm 0.00 in0.0 mm
01:15 AM 55.6°F13.1°C 51.8°F11.0°C 87% Calm Calm 1.0 mph1.6 kmh 30.05 in1017.6 mb 0.00 in0.0 mm 0.00 in0.0 mm 0.00 in0.0 mm
01:09 AM 56.0°F13.3°C 51.9°F11.1°C 86% Calm Calm 1.3 mph2.1 kmh 30.05 in1017.6 mb 0.00 in0.0 mm 0.00 in0.0 mm 0.00 in0.0 mm
01:04 AM 56.2°F13.4°C 52.4°F11.3°C 87% 1.3 mph E2.1 kmh E 1.3 mph2.1 kmh 30.05 in1017.6 mb 0.00 in0.0 mm 0.00 in0.0 mm 0.00 in0.0 mm
12:59 AM 56.1°F13.4°C 52.3°F11.3°C 87% 1.3 mph E2.1 kmh E 1.3 mph2.1 kmh 30.05 in1017.6 mb 0.00 in0.0 mm 0.00 in0.0 mm 0.00 in0.0 mm
12:54 AM 55.9°F13.3°C 52.4°F11.3°C 88% 1.3 mph E2.1 kmh E 1.3 mph2.1 kmh 30.04 in1017.3 mb 0.00 in0.0 mm 0.00 in0.0 mm 0.00 in0.0 mm
12:49 AM 55.6°F13.1°C 52.1°F11.2°C 88% 1.3 mph E2.1 kmh E 1.3 mph2.1 kmh 30.05 in1017.6 mb 0.00 in0.0 mm 0.00 in0.0 mm 0.00 in0.0 mm
12:44 AM 55.7°F13.2°C 52.2°F11.2°C 88% 1.3 mph E2.1 kmh E 1.3 mph2.1 kmh 30.05 in1017.6 mb 0.00 in0.0 mm 0.00 in0.0 mm 0.00 in0.0 mm
12:39 AM 55.7°F13.2°C 52.2°F11.2°C 88% Calm Calm 1.0 mph1.6 kmh 30.05 in1017.6 mb 0.00 in0.0 mm 0.00 in0.0 mm 0.00 in0.0 mm
12:34 AM 55.8°F13.2°C 52.3°F11.3°C 88% Calm Calm 1.0 mph1.6 kmh 30.05 in1017.6 mb 0.00 in0.0 mm 0.00 in0.0 mm 0.00 in0.0 mm
12:29 AM 55.8°F13.2°C 52.3°F11.3°C 88% Calm Calm 1.3 mph2.1 kmh 30.05 in1017.6 mb 0.00 in0.0 mm 0.00 in0.0 mm 0.00 in0.0 mm
12:24 AM 56.0°F13.3°C 52.2°F11.2°C 87% Calm Calm 1.3 mph2.1 kmh 30.05 in1017.6 mb 0.00 in0.0 mm 0.00 in0.0 mm 0.00 in0.0 mm
12:19 AM 56.2°F13.4°C 52.4°F11.3°C 87% Calm Calm 1.3 mph2.1 kmh 30.05 in1017.6 mb 0.00 in0.0 mm 0.00 in0.0 mm 0.00 in0.0 mm
12:14 AM 56.6°F13.7°C 52.5°F11.4°C 86% 1.3 mph E2.1 kmh E 1.3 mph2.1 kmh 30.05 in1017.6 mb 0.00 in0.0 mm 0.00 in0.0 mm 0.00 in0.0 mm
12:09 AM 57.0°F13.9°C 52.5°F11.4°C 85% Calm Calm 1.3 mph2.1 kmh 30.05 in1017.6 mb 0.00 in0.0 mm 0.00 in0.0 mm 0.00 in0.0 mm
12:04 AM 57.3°F14.1°C 52.8°F11.6°C 85% Calm Calm 1.0 mph1.6 kmh 30.05 in1017.6 mb 0.00 in0.0 mm 0.00 in0.0 mm 0.00 in0.0 mm